Alberta, Virginia
Current Conditions -  °F | °C
As of 11:15 AM on Thursday 23 Oct 2014 (Local Time) from KLVL Reporting Station
Clear Clear  
Wind Chill: 59°   Ceiling: Unl
Heat Index: 59°   Visibility: 10mi
Dew Point: 44°   Wind: 10mph
Humidity: 58%   Direction: 310°NW
Pressure: 29.96"   Gusts: 17mph
Location:  36.87°N, 77.89°W
Report Text: KLVL 231515Z AUTO 31009G15KT 10SM CLR 15/07 A2996 RMK AO1 T01520069
Loading
Personal Weather Stations






























Interactive Weather Map
Tropical Storm Tracking
New forecast layout! Learn more

10-Day Weather Forecast

Advertisements
Track Severe Weather on mobile